Observation data for Dora on 12/09/2018      Previous  Date       Current Mesonet Observations  Soil Data  Daily Summary Page  Observations in Plain Language
KDR1 090600Z 22007KT M03/M05 A3026 RMK A01 T10301045  RH  089%=      5-min Rain = 0
KDR1 090605Z 22007KT M03/M05 A3026 RMK A01 T10311047  RH  089%=      5-min Rain = 0
KDR1 090610Z 21006KT M03/M04 A3026 RMK A01 T10271042  RH  089%=      5-min Rain = 0
KDR1 090615Z 20006KT M03/M04 A3026 RMK A01 T10251041  RH  089%=      5-min Rain = 0
KDR1 090620Z 20008KT M02/M04 A3026 RMK A01 T10231039  RH  089%=      5-min Rain = 0
KDR1 090625Z 19008KT M02/M04 A3026 RMK A01 T10241040  RH  089%=      5-min Rain = 0
KDR1 090630Z 19006KT M03/M04 A3026 RMK A01 T10251040  RH  090%=      5-min Rain = 0
KDR1 090635Z 19006KT M03/M04 A3026 RMK A01 T10271042  RH  090%=      5-min Rain = 0
KDR1 090640Z 20005KT M03/M04 A3026 RMK A01 T10291044  RH  090%=      5-min Rain = 0
KDR1 090645Z 21004KT M03/M04 A3026 RMK A01 T10311044  RH  091%=      5-min Rain = 0
KDR1 090650Z 20004KT M03/M05 A3026 RMK A01 T10331046  RH  091%=      5-min Rain = 0
KDR1 090655Z 22005KT M04/M05 A3026 RMK A01 T10351048  RH  091%=      5-min Rain = 0
KDR1 090700Z 23006KT M04/M05 A3026 RMK A01 T10381051  RH  091%=      5-min Rain = 0
KDR1 090705Z 23006KT M04/M05 A3025 RMK A01 T10401053  RH  091%=      5-min Rain = 0
KDR1 090710Z 24007KT M04/M05 A3025 RMK A01 T10401053  RH  091%=      5-min Rain = 0
KDR1 090715Z 24007KT M04/M05 A3025 RMK A01 T10411053  RH  092%=      5-min Rain = 0
KDR1 090720Z 24007KT M04/M05 A3025 RMK A01 T10381050  RH  092%=      5-min Rain = 0
KDR1 090725Z 24007KT M04/M05 A3025 RMK A01 T10391052  RH  091%=      5-min Rain = 0
KDR1 090730Z 25007KT M04/M05 A3025 RMK A01 T10391052  RH  091%=      5-min Rain = 0
KDR1 090735Z 25005KT M04/M05 A3025 RMK A01 T10391051  RH  091%=      5-min Rain = 0
KDR1 090740Z 27003KT M04/M05 A3025 RMK A01 T10381050  RH  091%=      5-min Rain = 0
KDR1 090745Z 34003KT M04/M06 A3025 RMK A01 T10421056  RH  091%=      5-min Rain = 0
KDR1 090750Z 32003KT M05/M06 A3025 RMK A01 T10461059  RH  091%=      5-min Rain = 0
KDR1 090755Z 29005KT M04/M06 A3025 RMK A01 T10441056  RH  091%=      5-min Rain = 0
KDR1 090800Z 33006KT M04/M06 A3025 RMK A01 T10441056  RH  091%=      5-min Rain = 0
KDR1 090805Z 35006KT M05/M06 A3026 RMK A01 T10481061  RH  091%=      5-min Rain = 0
KDR1 090810Z 00006KT M05/M07 A3026 RMK A01 T10541066  RH  091%=      5-min Rain = 0
KDR1 090815Z 32004KT M05/M07 A3026 RMK A01 T10541066  RH  092%=      5-min Rain = 0
KDR1 090820Z 33004KT M06/M07 A3026 RMK A01 T10571069  RH  091%=      5-min Rain = 0
KDR1 090825Z 33004KT M06/M07 A3026 RMK A01 T10571069  RH  091%=      5-min Rain = 0
KDR1 090830Z 35004KT M06/M07 A3026 RMK A01 T10571068  RH  092%=      5-min Rain = 0
KDR1 090835Z 36004KT M06/M07 A3026 RMK A01 T10561067  RH  092%=      5-min Rain = 0
KDR1 090840Z 35004KT M05/M05 A3026 RMK A01 T10451054  RH  093%=      5-min Rain = 0
KDR1 090845Z 36005KT M04/M05 A3026 RMK A01 T10431052  RH  093%=      5-min Rain = 0
KDR1 090850Z 01003KT M04/M05 A3026 RMK A01 T10431052  RH  093%=      5-min Rain = 0
KDR1 090855Z 00004KT M04/M05 A3026 RMK A01 T10411050  RH  093%=      5-min Rain = 0
KDR1 090900Z 01004KT M04/M05 A3026 RMK A01 T10371046  RH  094%=      5-min Rain = 0
KDR1 090905Z 36003KT M04/M05 A3026 RMK A01 T10361045  RH  094%=      5-min Rain = 0
KDR1 090910Z 36004KT M04/M04 A3026 RMK A01 T10361044  RH  094%=      5-min Rain = 0
KDR1 090915Z 01005KT M04/M05 A3026 RMK A01 T10381047  RH  094%=      5-min Rain = 0
KDR1 090920Z 01005KT M04/M05 A3026 RMK A01 T10381047  RH  094%=      5-min Rain = 0
KDR1 090925Z 01005KT M04/M05 A3026 RMK A01 T10371045  RH  094%=      5-min Rain = 0
KDR1 090930Z 02005KT M04/M05 A3026 RMK A01 T10381047  RH  094%=      5-min Rain = 0
KDR1 090935Z 01005KT M04/M05 A3026 RMK A01 T10391048  RH  094%=      5-min Rain = 0
KDR1 090940Z 00005KT M04/M05 A3026 RMK A01 T10411050  RH  094%=      5-min Rain = 0
KDR1 090945Z 01005KT M04/M05 A3026 RMK A01 T10391047  RH  094%=      5-min Rain = 0
KDR1 090950Z 00005KT M04/M04 A3026 RMK A01 T10351043  RH  095%=      5-min Rain = 0
KDR1 090955Z 35004KT M04/M05 A3026 RMK A01 T10381046  RH  094%=      5-min Rain = 0
KDR1 091000Z 35005KT M04/M05 A3026 RMK A01 T10401049  RH  094%=      5-min Rain = 0
KDR1 091005Z 35005KT M04/M05 A3026 RMK A01 T10411049  RH  094%=      5-min Rain = 0
KDR1 091010Z 30005KT M04/M05 A3026 RMK A01 T10401048  RH  094%=      5-min Rain = 0
KDR1 091015Z 00006KT M04/M05 A3026 RMK A01 T10411049  RH  094%=      5-min Rain = 0
KDR1 091020Z 00005KT M04/M05 A3026 RMK A01 T10411049  RH  095%=      5-min Rain = 0
KDR1 091025Z 00005KT M04/M05 A3026 RMK A01 T10411049  RH  095%=      5-min Rain = 0
KDR1 091030Z 01005KT M04/M05 A3026 RMK A01 T10401048  RH  095%=      5-min Rain = 0
KDR1 091035Z 00006KT M04/M05 A3026 RMK A01 T10431051  RH  095%=      5-min Rain = 0
KDR1 091040Z 36005KT M04/M05 A3026 RMK A01 T10441052  RH  094%=      5-min Rain = 0
KDR1 091045Z 35005KT M05/M06 A3026 RMK A01 T10501059  RH  094%=      5-min Rain = 0
KDR1 091050Z 35005KT M05/M06 A3026 RMK A01 T10521062  RH  093%=      5-min Rain = 0
KDR1 091055Z 34005KT M06/M07 A3027 RMK A01 T10551065  RH  093%=      5-min Rain = 0
KDR1 091100Z 34006KT M05/M06 A3027 RMK A01 T10491058  RH  093%=      5-min Rain = 0
KDR1 091105Z 35007KT M04/M05 A3027 RMK A01 T10441053  RH  094%=      5-min Rain = 0
KDR1 091110Z 35006KT M05/M05 A3027 RMK A01 T10451054  RH  094%=      5-min Rain = 0
KDR1 091115Z 34005KT M05/M06 A3027 RMK A01 T10461055  RH  094%=      5-min Rain = 0
KDR1 091120Z 34005KT M05/M06 A3027 RMK A01 T10471056  RH  094%=      5-min Rain = 0
KDR1 091125Z 33005KT M05/M06 A3027 RMK A01 T10481057  RH  093%=      5-min Rain = 0
KDR1 091130Z 33005KT M05/M06 A3027 RMK A01 T10481058  RH  093%=      5-min Rain = 0
KDR1 091135Z 34004KT M05/M06 A3027 RMK A01 T10481058  RH  093%=      5-min Rain = 0
KDR1 091140Z 33004KT M05/M06 A3027 RMK A01 T10491058  RH  093%=      5-min Rain = 0
KDR1 091145Z 33004KT M05/M06 A3027 RMK A01 T10491058  RH  093%=      5-min Rain = 0
KDR1 091150Z 33005KT M05/M06 A3027 RMK A01 T10491058  RH  093%=      5-min Rain = 0
KDR1 091155Z 33004KT M05/M06 A3027 RMK A01 T10481058  RH  093%=      5-min Rain = 0
KDR1 091200Z 33004KT M05/M06 A3027 RMK A01 T10491058  RH  093%=      5-min Rain = 0
KDR1 091205Z 33004KT M05/M06 A3027 RMK A01 T10501059  RH  093%=      5-min Rain = 0
KDR1 091210Z 34004KT M05/M06 A3027 RMK A01 T10511061  RH  093%=      5-min Rain = 0
KDR1 091215Z 35004KT M05/M06 A3027 RMK A01 T10531063  RH  093%=      5-min Rain = 0
KDR1 091220Z 33004KT M06/M07 A3028 RMK A01 T10561066  RH  092%=      5-min Rain = 0
KDR1 091225Z 33004KT M06/M07 A3028 RMK A01 T10561066  RH  092%=      5-min Rain = 0
KDR1 091230Z 34004KT M06/M07 A3028 RMK A01 T10571067  RH  092%=      5-min Rain = 0
KDR1 091235Z 33004KT M06/M07 A3028 RMK A01 T10571067  RH  092%=      5-min Rain = 0
KDR1 091240Z 33004KT M06/M07 A3029 RMK A01 T10551066  RH  093%=      5-min Rain = 0
KDR1 091245Z 34004KT M06/M07 A3029 RMK A01 T10561066  RH  092%=      5-min Rain = 0
KDR1 091250Z 35004KT M06/M07 A3029 RMK A01 T10561066  RH  092%=      5-min Rain = 0
KDR1 091255Z 34004KT M06/M07 A3029 RMK A01 T10551066  RH  092%=      5-min Rain = 0
KDR1 091300Z 35004KT M06/M07 A3029 RMK A01 T10551065  RH  093%=      5-min Rain = 0
KDR1 091305Z 34003KT M06/M07 A303 RMK A01 T10551065  RH  093%=      5-min Rain = 0
KDR1 091310Z 34003KT M05/M06 A303 RMK A01 T10531063  RH  093%=      5-min Rain = 0
KDR1 091315Z 34004KT M05/M06 A303 RMK A01 T10521062  RH  093%=      5-min Rain = 0
KDR1 091320Z 34004KT M05/M06 A303 RMK A01 T10531063  RH  093%=      5-min Rain = 0
KDR1 091325Z 33006KT M06/M07 A303 RMK A01 T10551066  RH  092%=      5-min Rain = 0
KDR1 091330Z 33005KT M05/M06 A303 RMK A01 T10531063  RH  093%=      5-min Rain = 0
KDR1 091335Z 32005KT M05/M06 A3031 RMK A01 T10491059  RH  093%=      5-min Rain = 0
KDR1 091340Z 31005KT M05/M06 A3031 RMK A01 T10471056  RH  093%=      5-min Rain = 0
KDR1 091345Z 31006KT M05/M06 A3031 RMK A01 T10471056  RH  093%=      5-min Rain = 0
KDR1 091350Z 30006KT M05/M05 A3031 RMK A01 T10451054  RH  094%=      5-min Rain = 0
KDR1 091355Z 31006KT M04/M05 A3032 RMK A01 T10421051  RH  094%=      5-min Rain = 0
KDR1 091400Z 32006KT M04/M05 A3032 RMK A01 T10391047  RH  094%=      5-min Rain = 0
KDR1 091405Z 31006KT M04/M05 A3032 RMK A01 T10371046  RH  094%=      5-min Rain = 0
KDR1 091410Z 30006KT M04/M05 A3032 RMK A01 T10381046  RH  094%=      5-min Rain = 0
KDR1 091415Z 30006KT M04/M05 A3032 RMK A01 T10391048  RH  094%=      5-min Rain = 0
KDR1 091420Z 29004KT M04/M05 A3032 RMK A01 T10401049  RH  094%=      5-min Rain = 0
KDR1 091425Z 29004KT M04/M05 A3033 RMK A01 T10421051  RH  094%=      5-min Rain = 0
KDR1 091430Z 30004KT M04/M05 A3033 RMK A01 T10431052  RH  094%=      5-min Rain = 0
KDR1 091435Z 30004KT M04/M05 A3033 RMK A01 T10431053  RH  093%=      5-min Rain = 0
KDR1 091440Z 29003KT M04/M05 A3033 RMK A01 T10431053  RH  093%=      5-min Rain = 0
KDR1 091445Z 30004KT M04/M05 A3033 RMK A01 T10441054  RH  093%=      5-min Rain = 0
KDR1 091450Z 31004KT M04/M05 A3033 RMK A01 T10411051  RH  093%=      5-min Rain = 0
KDR1 091455Z 32004KT M03/M04 A3034 RMK A01 T10321042  RH  094%=      5-min Rain = 0
KDR1 091500Z 32003KT M03/M03 A3034 RMK A01 T10251034  RH  094%=      5-min Rain = 0
KDR1 091505Z 31004KT M02/M03 A3034 RMK A01 T10221031  RH  094%=      5-min Rain = 0
KDR1 091510Z 32003KT M02/M03 A3034 RMK A01 T10191027  RH  095%=      5-min Rain = 0
KDR1 091515Z 31003KT M02/M02 A3034 RMK A01 T10161024  RH  095%=      5-min Rain = 0
KDR1 091520Z 32004KT M01/M02 A3034 RMK A01 T10141022  RH  095%=      5-min Rain = 0
KDR1 091525Z 32005KT M02/M02 A3035 RMK A01 T10151023  RH  095%=      5-min Rain = 0
KDR1 091530Z 32005KT M02/M03 A3035 RMK A01 T10171025  RH  095%=      5-min Rain = 0
KDR1 091535Z 31005KT M02/M02 A3035 RMK A01 T10151023  RH  095%=      5-min Rain = 0
KDR1 091540Z 31006KT M01/M02 A3036 RMK A01 T10141022  RH  095%=      5-min Rain = 0
KDR1 091545Z 31006KT M01/M02 A3036 RMK A01 T10131021  RH  095%=      5-min Rain = 0
KDR1 091550Z 31005KT M01/M02 A3036 RMK A01 T10111019  RH  095%=      5-min Rain = 0
KDR1 091555Z 32005KT M01/M02 A3036 RMK A01 T10111019  RH  095%=      5-min Rain = 0
KDR1 091600Z 33005KT M01/M02 A3036 RMK A01 T10101018  RH  095%=      5-min Rain = 0
KDR1 091605Z 33005KT M01/M02 A3036 RMK A01 T10091017  RH  095%=      5-min Rain = 0
KDR1 091610Z 33005KT M01/M02 A3036 RMK A01 T10081016  RH  095%=      5-min Rain = 0
KDR1 091615Z 34005KT M01/M01 A3036 RMK A01 T10051013  RH  095%=      5-min Rain = 0
KDR1 091620Z 33005KT M00/M01 A3037 RMK A01 T10031012  RH  095%=      5-min Rain = 0
KDR1 091625Z 33005KT M00/M01 A3037 RMK A01 T10011009  RH  095%=      5-min Rain = 0
KDR1 091630Z 34005KT 00/01 A3037 RMK A01 T00-000-9  RH  095%=      5-min Rain = 0
KDR1 091635Z 34005KT 00/M01 A3037 RMK A01 T00011008  RH  095%=      5-min Rain = 0
KDR1 091640Z 34004KT 00/M01 A3037 RMK A01 T00031005  RH  095%=      5-min Rain = 0
KDR1 091645Z 34003KT 01/M00 A3037 RMK A01 T00051003  RH  095%=      5-min Rain = 0
KDR1 091650Z 33003KT 01/M00 A3037 RMK A01 T00081001  RH  095%=      5-min Rain = 0
KDR1 091655Z 34003KT 01/00 A3037 RMK A01 T00110002  RH  095%=      5-min Rain = 0
KDR1 091700Z 02003KT 02/01 A3037 RMK A01 T00160007  RH  095%=      5-min Rain = 0
KDR1 091705Z 02003KT 02/01 A3037 RMK A01 T00200012  RH  096%=      5-min Rain = 0
KDR1 091710Z 36002KT 02/01 A3037 RMK A01 T00220013  RH  096%=      5-min Rain = 0
KDR1 091715Z 35003KT 02/01 A3037 RMK A01 T00210013  RH  096%=      5-min Rain = 0
KDR1 091720Z 35003KT 02/02 A3037 RMK A01 T00230015  RH  096%=      5-min Rain = 0
KDR1 091725Z 35002KT 02/02 A3037 RMK A01 T00240016  RH  096%=      5-min Rain = 0
KDR1 091730Z 01002KT 03/02 A3037 RMK A01 T00270019  RH  096%=      5-min Rain = 0
KDR1 091735Z 05000KT 03/02 A3037 RMK A01 T00320023  RH  096%=      5-min Rain = 0
KDR1 091740Z 07002KT 04/03 A3037 RMK A01 T00360027  RH  095%=      5-min Rain = 0
KDR1 091745Z 06002KT 04/02 A3037 RMK A01 T00360024  RH  093%=      5-min Rain = 0
KDR1 091750Z 10002KT 05/03 A3036 RMK A01 T00470026  RH  088%=      5-min Rain = 0
KDR1 091755Z 10002KT 05/01 A3036 RMK A01 T00510013  RH  078%=      5-min Rain = 0
KDR1 091800Z 11004KT 05/00 A3036 RMK A01 T00540002  RH  070%=      5-min Rain = 0
KDR1 091805Z 12003KT 06/00 A3035 RMK A01 T005700-0  RH  067%=      5-min Rain = 0
KDR1 091810Z 10003KT 06/M00 A3035 RMK A01 T00581004  RH  065%=      5-min Rain = 0
KDR1 091815Z 12004KT 06/M01 A3035 RMK A01 T00591007  RH  063%=      5-min Rain = 0
KDR1 091820Z 13005KT 06/M01 A3035 RMK A01 T00601006  RH  063%=      5-min Rain = 0
KDR1 091825Z 12004KT 06/M01 A3034 RMK A01 T00591010  RH  062%=      5-min Rain = 0
KDR1 091830Z 12004KT 06/M01 A3034 RMK A01 T00611011  RH  060%=      5-min Rain = 0
KDR1 091835Z 10004KT 06/M01 A3034 RMK A01 T00581013  RH  061%=      5-min Rain = 0
KDR1 091840Z 11005KT 06/M01 A3033 RMK A01 T00601014  RH  060%=      5-min Rain = 0
KDR1 091845Z 12005KT 06/M01 A3033 RMK A01 T00631014  RH  058%=      5-min Rain = 0
KDR1 091850Z 12005KT 06/M01 A3033 RMK A01 T00621011  RH  060%=      5-min Rain = 0
KDR1 091855Z 13006KT 06/M01 A3033 RMK A01 T00631009  RH  060%=      5-min Rain = 0
KDR1 091900Z 12005KT 06/M02 A3033 RMK A01 T00631015  RH  058%=      5-min Rain = 0
KDR1 091905Z 14005KT 07/M02 A3033 RMK A01 T00651016  RH  057%=      5-min Rain = 0
KDR1 091910Z 14004KT 07/M02 A3033 RMK A01 T00661018  RH  055%=      5-min Rain = 0
KDR1 091915Z 14003KT 07/M02 A3033 RMK A01 T00681020  RH  054%=      5-min Rain = 0
KDR1 091920Z 12004KT 07/M02 A3033 RMK A01 T00701022  RH  052%=      5-min Rain = 0
KDR1 091925Z 12004KT 07/M02 A3032 RMK A01 T00721017  RH  053%=      5-min Rain = 0
KDR1 091930Z 10004KT 07/M02 A3032 RMK A01 T00711022  RH  052%=      5-min Rain = 0
KDR1 091935Z 10004KT 07/M03 A3032 RMK A01 T00691028  RH  050%=      5-min Rain = 0
KDR1 091940Z 12004KT 07/M03 A3032 RMK A01 T00711025  RH  051%=      5-min Rain = 0
KDR1 091945Z 11004KT 07/M03 A3032 RMK A01 T00711028  RH  050%=      5-min Rain = 0
KDR1 091950Z 11005KT 07/M02 A3031 RMK A01 T00711023  RH  052%=      5-min Rain = 0
KDR1 091955Z 11005KT 07/M02 A3031 RMK A01 T00711022  RH  052%=      5-min Rain = 0
KDR1 092000Z 11004KT 07/M02 A3031 RMK A01 T00731022  RH  051%=      5-min Rain = 0
KDR1 092005Z 10004KT 07/M03 A3031 RMK A01 T00711028  RH  050%=      5-min Rain = 0
KDR1 092010Z 11005KT 07/M02 A3031 RMK A01 T00721023  RH  051%=      5-min Rain = 0
KDR1 092015Z 13004KT 07/M02 A3031 RMK A01 T00721021  RH  052%=      5-min Rain = 0
KDR1 092020Z 13003KT 07/M02 A3031 RMK A01 T00741023  RH  051%=      5-min Rain = 0
KDR1 092025Z 13005KT 07/M02 A3031 RMK A01 T00741020  RH  052%=      5-min Rain = 0
KDR1 092030Z 11005KT 07/M02 A3031 RMK A01 T00701019  RH  054%=      5-min Rain = 0
KDR1 092035Z 10005KT 07/M02 A3031 RMK A01 T00681021  RH  053%=      5-min Rain = 0
KDR1 092040Z 12005KT 07/M02 A3031 RMK A01 T00721019  RH  053%=      5-min Rain = 0
KDR1 092045Z 11004KT 07/M02 A3031 RMK A01 T00731023  RH  051%=      5-min Rain = 0
KDR1 092050Z 10004KT 07/M02 A303 RMK A01 T00741022  RH  051%=      5-min Rain = 0
KDR1 092055Z 11004KT 08/M02 A303 RMK A01 T00751024  RH  050%=      5-min Rain = 0
KDR1 092100Z 15004KT 07/M03 A3031 RMK A01 T00721027  RH  050%=      5-min Rain = 0
KDR1 092105Z 14004KT 07/M03 A3031 RMK A01 T00731026  RH  050%=      5-min Rain = 0
KDR1 092110Z 13004KT 08/M03 A3031 RMK A01 T00761025  RH  049%=      5-min Rain = 0
KDR1 092115Z 12004KT 08/M03 A3031 RMK A01 T00771027  RH  048%=      5-min Rain = 0
KDR1 092120Z 12003KT 08/M03 A3031 RMK A01 T00791025  RH  048%=      5-min Rain = 0
KDR1 092125Z 13004KT 08/M03 A3031 RMK A01 T00781029  RH  047%=      5-min Rain = 0
KDR1 092130Z 11003KT 08/M03 A3031 RMK A01 T00781027  RH  048%=      5-min Rain = 0
KDR1 092135Z 07003KT 07/M03 A3031 RMK A01 T00731030  RH  048%=      5-min Rain = 0
KDR1 092140Z 08002KT 07/M03 A3031 RMK A01 T00721031  RH  048%=      5-min Rain = 0
KDR1 092145Z 09004KT 07/M03 A3031 RMK A01 T00731028  RH  049%=      5-min Rain = 0
KDR1 092150Z 09004KT 07/M03 A3031 RMK A01 T00741027  RH  049%=      5-min Rain = 0
KDR1 092155Z 09004KT 07/M03 A303 RMK A01 T00721028  RH  049%=      5-min Rain = 0
KDR1 092200Z 13004KT 07/M03 A303 RMK A01 T00741027  RH  049%=      5-min Rain = 0
KDR1 092205Z 11005KT 08/M03 A303 RMK A01 T00781027  RH  048%=      5-min Rain = 0
KDR1 092210Z 12005KT 07/M03 A303 RMK A01 T00741026  RH  050%=      5-min Rain = 0
KDR1 092215Z 12006KT 08/M02 A303 RMK A01 T00751023  RH  050%=      5-min Rain = 0
KDR1 092220Z 11006KT 07/M02 A303 RMK A01 T00711024  RH  051%=      5-min Rain = 0
KDR1 092225Z 13007KT 07/M02 A303 RMK A01 T00731023  RH  051%=      5-min Rain = 0
KDR1 092230Z 12006KT 07/M02 A303 RMK A01 T00711022  RH  052%=      5-min Rain = 0
KDR1 092235Z 13006KT 07/M02 A303 RMK A01 T00721020  RH  052%=      5-min Rain = 0
KDR1 092240Z 14006KT 07/M02 A303 RMK A01 T00721019  RH  053%=      5-min Rain = 0
KDR1 092245Z 14006KT 07/M02 A303 RMK A01 T00721019  RH  053%=      5-min Rain = 0
KDR1 092250Z 13005KT 07/M02 A303 RMK A01 T00691019  RH  054%=      5-min Rain = 0
KDR1 092255Z 13006KT 07/M02 A303 RMK A01 T00661018  RH  055%=      5-min Rain = 0
KDR1 092300Z 15005KT 06/M02 A303 RMK A01 T00631018  RH  057%=      5-min Rain = 0
KDR1 092305Z 15006KT 06/M02 A303 RMK A01 T00601018  RH  058%=      5-min Rain = 0
KDR1 092310Z 14005KT 06/M02 A303 RMK A01 T00561018  RH  060%=      5-min Rain = 0
KDR1 092315Z 13005KT 05/M02 A303 RMK A01 T00521020  RH  060%=      5-min Rain = 0
KDR1 092320Z 13004KT 05/M02 A303 RMK A01 T00481021  RH  062%=      5-min Rain = 0
KDR1 092325Z 12005KT 04/M02 A3031 RMK A01 T00411024  RH  063%=      5-min Rain = 0
KDR1 092330Z 13006KT 04/M03 A3031 RMK A01 T00351027  RH  064%=      5-min Rain = 0
KDR1 092335Z 12005KT 03/M03 A3031 RMK A01 T00291031  RH  065%=      5-min Rain = 0
KDR1 092340Z 13005KT 02/M03 A3031 RMK A01 T00231031  RH  068%=      5-min Rain = 0
KDR1 092345Z 13005KT 02/M03 A3031 RMK A01 T00191033  RH  069%=      5-min Rain = 0
KDR1 092350Z 15006KT 02/M04 A3031 RMK A01 T00151035  RH  070%=      5-min Rain = 0
KDR1 092355Z 15004KT 01/M03 A3031 RMK A01 T00131034  RH  071%=      5-min Rain = 0
KDR1 100000Z 15004KT 01/M03 A3031 RMK A01 T00101034  RH  073%=      5-min Rain = 0
KDR1 100005Z 15005KT 01/M03 A3031 RMK A01 T00091032  RH  074%=      5-min Rain = 0
KDR1 100010Z 16006KT 01/M03 A3032 RMK A01 T00051034  RH  076%=      5-min Rain = 0
KDR1 100015Z 16006KT 00/M03 A3032 RMK A01 T00031032  RH  077%=      5-min Rain = 0
KDR1 100020Z 15006KT 00/M03 A3032 RMK A01 T00011032  RH  079%=      5-min Rain = 0
KDR1 100025Z 15007KT 00/M03 A3032 RMK A01 T00041029  RH  079%=      5-min Rain = 0
KDR1 100030Z 16007KT 01/M03 A3032 RMK A01 T00051030  RH  077%=      5-min Rain = 0
KDR1 100035Z 16007KT 00/M03 A3032 RMK A01 T00031031  RH  079%=      5-min Rain = 0
KDR1 100040Z 16006KT 00/M03 A3032 RMK A01 T00021030  RH  079%=      5-min Rain = 0
KDR1 100045Z 15006KT 00/M03 A3032 RMK A01 T00011032  RH  079%=      5-min Rain = 0
KDR1 100050Z 16008KT M00/M03 A3032 RMK A01 T10011034  RH  078%=      5-min Rain = 0
KDR1 100055Z 17009KT 00/M03 A3032 RMK A01 T00021032  RH  078%=      5-min Rain = 0
KDR1 100100Z 17009KT 01/M03 A3032 RMK A01 T00081030  RH  076%=      5-min Rain = 0
KDR1 100105Z 18007KT 01/M03 A3032 RMK A01 T00081030  RH  076%=      5-min Rain = 0
KDR1 100110Z 18007KT 01/M03 A3032 RMK A01 T00081031  RH  076%=      5-min Rain = 0
KDR1 100115Z 18008KT 01/M03 A3033 RMK A01 T00071030  RH  077%=      5-min Rain = 0
KDR1 100120Z 18008KT 01/M03 A3033 RMK A01 T00071030  RH  077%=      5-min Rain = 0
KDR1 100125Z 18008KT 01/M03 A3033 RMK A01 T00061028  RH  078%=      5-min Rain = 0
KDR1 100130Z 19008KT 01/M03 A3034 RMK A01 T00051028  RH  079%=      5-min Rain = 0
KDR1 100135Z 19007KT 01/M03 A3034 RMK A01 T00071026  RH  080%=      5-min Rain = 0
KDR1 100140Z 20006KT 01/M02 A3034 RMK A01 T00071024  RH  080%=      5-min Rain = 0
KDR1 100145Z 20005KT 00/M03 A3035 RMK A01 T00031025  RH  082%=      5-min Rain = 0
KDR1 100150Z 20006KT 01/M02 A3035 RMK A01 T00091021  RH  081%=      5-min Rain = 0
KDR1 100155Z 20006KT 01/M02 A3035 RMK A01 T00091023  RH  080%=      5-min Rain = 0
KDR1 100200Z 20005KT 00/03 A3036 RMK A01 T00-00-26  RH  083%=      5-min Rain = 0
KDR1 100205Z 21006KT M00/M03 A3036 RMK A01 T10021026  RH  085%=      5-min Rain = 0
KDR1 100210Z 21006KT M00/M03 A3036 RMK A01 T10031027  RH  085%=      5-min Rain = 0
KDR1 100215Z 21006KT M01/M03 A3036 RMK A01 T10071029  RH  086%=      5-min Rain = 0
KDR1 100220Z 20005KT M01/M03 A3036 RMK A01 T10081029  RH  086%=      5-min Rain = 0
KDR1 100225Z 20007KT M01/M03 A3036 RMK A01 T10091028  RH  087%=      5-min Rain = 0
KDR1 100230Z 20007KT M00/M02 A3036 RMK A01 T10011024  RH  085%=      5-min Rain = 0
KDR1 100235Z 21006KT M01/M03 A3036 RMK A01 T10051027  RH  086%=      5-min Rain = 0
KDR1 100240Z 22006KT M00/M03 A3036 RMK A01 T10031025  RH  086%=      5-min Rain = 0
KDR1 100245Z 23006KT M00/M03 A3037 RMK A01 T10041027  RH  085%=      5-min Rain = 0
KDR1 100250Z 22004KT M01/M03 A3037 RMK A01 T10051027  RH  085%=      5-min Rain = 0
KDR1 100255Z 22004KT M00/M03 A3037 RMK A01 T10041027  RH  085%=      5-min Rain = 0
KDR1 100300Z 22005KT M01/M03 A3037 RMK A01 T10061028  RH  085%=      5-min Rain = 0
KDR1 100305Z 23006KT M01/M03 A3037 RMK A01 T10071028  RH  087%=      5-min Rain = 0
KDR1 100310Z 23007KT M01/M03 A3036 RMK A01 T10071027  RH  087%=      5-min Rain = 0
KDR1 100315Z 23007KT M01/M03 A3037 RMK A01 T10081027  RH  087%=      5-min Rain = 0
KDR1 100320Z 24007KT M01/M03 A3037 RMK A01 T10061026  RH  087%=      5-min Rain = 0
KDR1 100325Z 24007KT M01/M03 A3037 RMK A01 T10061026  RH  087%=      5-min Rain = 0
KDR1 100330Z 25008KT M00/M02 A3037 RMK A01 T10041023  RH  088%=      5-min Rain = 0
KDR1 100335Z 26007KT M01/M03 A3037 RMK A01 T10071025  RH  088%=      5-min Rain = 0
KDR1 100340Z 26007KT M01/M02 A3038 RMK A01 T10051020  RH  090%=      5-min Rain = 0
KDR1 100345Z 26008KT M00/M02 A3038 RMK A01 T10021015  RH  092%=      5-min Rain = 0
KDR1 100350Z 27007KT M00/M01 A3038 RMK A01 T10021014  RH  092%=      5-min Rain = 0
KDR1 100355Z 26007KT M00/M01 A3038 RMK A01 T10021014  RH  093%=      5-min Rain = 0
KDR1 100400Z 26007KT M00/M01 A3038 RMK A01 T10031014  RH  093%=      5-min Rain = 0
KDR1 100405Z 27006KT M01/M02 A3038 RMK A01 T10061017  RH  093%=      5-min Rain = 0
KDR1 100410Z 27006KT M01/M02 A3038 RMK A01 T10091020  RH  093%=      5-min Rain = 0
KDR1 100415Z 27006KT M01/M02 A3038 RMK A01 T10111022  RH  093%=      5-min Rain = 0
KDR1 100420Z 27006KT M01/M02 A3039 RMK A01 T10141024  RH  093%=      5-min Rain = 0
KDR1 100425Z 27006KT M02/M02 A3039 RMK A01 T10151024  RH  094%=      5-min Rain = 0
KDR1 100430Z 27006KT M02/M03 A3039 RMK A01 T10161025  RH  094%=      5-min Rain = 0
KDR1 100435Z 28006KT M02/M03 A3039 RMK A01 T10171025  RH  094%=      5-min Rain = 0
KDR1 100440Z 27005KT M02/M03 A3039 RMK A01 T10181026  RH  095%=      5-min Rain = 0
KDR1 100445Z 27005KT M02/M03 A3039 RMK A01 T10171026  RH  095%=      5-min Rain = 0
KDR1 100450Z 27006KT M02/M03 A3039 RMK A01 T10181026  RH  095%=      5-min Rain = 0
KDR1 100455Z 27006KT M02/M02 A3039 RMK A01 T10161023  RH  095%=      5-min Rain = 0
KDR1 100500Z 27006KT M02/M02 A3038 RMK A01 T10161023  RH  095%=      5-min Rain = 0
KDR1 100505Z 28006KT M02/M03 A3038 RMK A01 T10171025  RH  095%=      5-min Rain = 0
KDR1 100510Z 29006KT M02/M03 A3039 RMK A01 T10171025  RH  095%=      5-min Rain = 0
KDR1 100515Z 29004KT M02/M02 A3039 RMK A01 T10161024  RH  095%=      5-min Rain = 0
KDR1 100520Z 30005KT M02/M03 A3039 RMK A01 T10191026  RH  095%=      5-min Rain = 0
KDR1 100525Z 29005KT M02/M03 A3039 RMK A01 T10221030  RH  095%=      5-min Rain = 0
KDR1 100530Z 29005KT M02/M03 A3039 RMK A01 T10221030  RH  095%=      5-min Rain = 0
KDR1 100535Z 28004KT M02/M03 A3039 RMK A01 T10211028  RH  095%=      5-min Rain = 0
KDR1 100540Z 28005KT M02/M02 A3038 RMK A01 T10171024  RH  096%=      5-min Rain = 0
KDR1 100545Z 27005KT M01/M02 A3038 RMK A01 T10141021  RH  096%=      5-min Rain = 0
KDR1 100550Z 28006KT M01/M02 A3038 RMK A01 T10141021  RH  096%=      5-min Rain = 0
KDR1 100555Z 27006KT M02/M02 A3038 RMK A01 T10171024  RH  095%=      5-min Rain = 0

Page generated in 0.0089 seconds.